sensor_id;sensor_type;location;lat;lon;timestamp;P1;durP1;ratioP1;P2;durP2;ratioP2
37169;SDS011;23062;13.952;100.608;2022-09-03T00:09:13;22.00;;;16.00;;
37169;SDS011;23062;13.952;100.608;2022-09-03T00:14:18;30.00;;;23.00;;
37169;SDS011;23062;13.952;100.608;2022-09-03T00:19:07;30.00;;;22.00;;
37169;SDS011;23062;13.952;100.608;2022-09-03T00:23:58;27.00;;;21.00;;
37169;SDS011;23062;13.952;100.608;2022-09-03T00:28:58;25.00;;;19.00;;
37169;SDS011;23062;13.952;100.608;2022-09-03T00:33:50;25.00;;;19.00;;
37169;SDS011;23062;13.952;100.608;2022-09-03T00:38:45;21.00;;;16.00;;
37169;SDS011;23062;13.952;100.608;2022-09-03T00:43:50;19.00;;;14.00;;
37169;SDS011;23062;13.952;100.608;2022-09-03T00:54:17;21.00;;;16.00;;
37169;SDS011;23062;13.952;100.608;2022-09-03T01:14:46;24.00;;;18.00;;
37169;SDS011;23062;13.952;100.608;2022-09-03T01:34:57;23.00;;;17.00;;
37169;SDS011;23062;13.952;100.608;2022-09-03T01:39:45;19.00;;;15.00;;
37169;SDS011;23062;13.952;100.608;2022-09-03T01:50:20;34.00;;;27.00;;
37169;SDS011;23062;13.952;100.608;2022-09-03T02:00:09;29.00;;;20.53;;
37169;SDS011;23062;13.952;100.608;2022-09-03T02:05:08;24.00;;;18.00;;
37169;SDS011;23062;13.952;100.608;2022-09-03T02:10:02;31.00;;;23.00;;
37169;SDS011;23062;13.952;100.608;2022-09-03T02:14:53;21.00;;;16.00;;
37169;SDS011;23062;13.952;100.608;2022-09-03T02:19:43;27.00;;;19.00;;
37169;SDS011;23062;13.952;100.608;2022-09-03T02:24:34;23.00;;;18.00;;
37169;SDS011;23062;13.952;100.608;2022-09-03T02:29:24;35.00;;;26.00;;
37169;SDS011;23062;13.952;100.608;2022-09-03T02:34:14;26.00;;;19.00;;
37169;SDS011;23062;13.952;100.608;2022-09-03T02:39:04;23.00;;;17.00;;
37169;SDS011;23062;13.952;100.608;2022-09-03T02:49:11;23.00;;;15.87;;
37169;SDS011;23062;13.952;100.608;2022-09-03T02:54:02;27.00;;;20.00;;
37169;SDS011;23062;13.952;100.608;2022-09-03T02:58:55;22.00;;;16.00;;
37169;SDS011;23062;13.952;100.608;2022-09-03T03:03:49;30.00;;;22.00;;
37169;SDS011;23062;13.952;100.608;2022-09-03T03:08:39;25.00;;;18.00;;
37169;SDS011;23062;13.952;100.608;2022-09-03T03:13:30;24.00;;;17.00;;
37169;SDS011;23062;13.952;100.608;2022-09-03T03:18:20;21.00;;;16.00;;
37169;SDS011;23062;13.952;100.608;2022-09-03T03:23:09;23.00;;;17.00;;
37169;SDS011;23062;13.952;100.608;2022-09-03T03:27:59;18.00;;;13.00;;
37169;SDS011;23062;13.952;100.608;2022-09-03T03:32:51;19.00;;;14.00;;
37169;SDS011;23062;13.952;100.608;2022-09-03T03:37:41;21.00;;;16.00;;
37169;SDS011;23062;13.952;100.608;2022-09-03T03:42:32;22.00;;;17.00;;
37169;SDS011;23062;13.952;100.608;2022-09-03T03:47:22;21.00;;;15.00;;
37169;SDS011;23062;13.952;100.608;2022-09-03T03:52:12;23.00;;;16.00;;
37169;SDS011;23062;13.952;100.608;2022-09-03T03:57:01;23.00;;;16.00;;
37169;SDS011;23062;13.952;100.608;2022-09-03T04:01:54;23.00;;;18.00;;
37169;SDS011;23062;13.952;100.608;2022-09-03T04:06:42;20.00;;;15.00;;
37169;SDS011;23062;13.952;100.608;2022-09-03T04:11:34;17.00;;;13.00;;
37169;SDS011;23062;13.952;100.608;2022-09-03T04:16:24;18.00;;;13.00;;
37169;SDS011;23062;13.952;100.608;2022-09-03T04:21:15;15.00;;;11.00;;
37169;SDS011;23062;13.952;100.608;2022-09-03T04:26:06;16.00;;;11.00;;
37169;SDS011;23062;13.952;100.608;2022-09-03T04:31:00;14.00;;;10.00;;
37169;SDS011;23062;13.952;100.608;2022-09-03T04:36:00;14.00;;;10.00;;
37169;SDS011;23062;13.952;100.608;2022-09-03T04:40:57;11.00;;;8.00;;
37169;SDS011;23062;13.952;100.608;2022-09-03T04:45:46;12.00;;;8.00;;
37169;SDS011;23062;13.952;100.608;2022-09-03T04:50:36;8.00;;;6.00;;
37169;SDS011;23062;13.952;100.608;2022-09-03T04:55:25;5.00;;;3.00;;
37169;SDS011;23062;13.952;100.608;2022-09-03T05:00:15;5.00;;;3.00;;
37169;SDS011;23062;13.952;100.608;2022-09-03T05:05:05;4.00;;;2.00;;
37169;SDS011;23062;13.952;100.608;2022-09-03T05:09:55;3.00;;;2.00;;
37169;SDS011;23062;13.952;100.608;2022-09-03T05:14:45;7.00;;;5.00;;
37169;SDS011;23062;13.952;100.608;2022-09-03T05:19:35;7.00;;;5.00;;
37169;SDS011;23062;13.952;100.608;2022-09-03T05:24:24;9.00;;;6.00;;
37169;SDS011;23062;13.952;100.608;2022-09-03T05:29:14;10.00;;;7.00;;
37169;SDS011;23062;13.952;100.608;2022-09-03T05:34:05;9.00;;;6.00;;
37169;SDS011;23062;13.952;100.608;2022-09-03T05:38:56;9.00;;;6.00;;
37169;SDS011;23062;13.952;100.608;2022-09-03T05:43:46;9.00;;;6.00;;
37169;SDS011;23062;13.952;100.608;2022-09-03T05:48:40;8.00;;;6.00;;
37169;SDS011;23062;13.952;100.608;2022-09-03T05:53:32;11.00;;;8.00;;
37169;SDS011;23062;13.952;100.608;2022-09-03T05:58:22;17.00;;;12.00;;
37169;SDS011;23062;13.952;100.608;2022-09-03T06:03:13;21.00;;;14.00;;
37169;SDS011;23062;13.952;100.608;2022-09-03T06:08:03;13.00;;;9.00;;
37169;SDS011;23062;13.952;100.608;2022-09-03T06:12:53;11.00;;;8.00;;
37169;SDS011;23062;13.952;100.608;2022-09-03T06:17:45;11.00;;;8.00;;
37169;SDS011;23062;13.952;100.608;2022-09-03T06:22:35;9.00;;;6.00;;
37169;SDS011;23062;13.952;100.608;2022-09-03T06:27:24;11.00;;;7.00;;
37169;SDS011;23062;13.952;100.608;2022-09-03T06:32:15;9.00;;;6.00;;
37169;SDS011;23062;13.952;100.608;2022-09-03T06:37:05;11.00;;;8.00;;
37169;SDS011;23062;13.952;100.608;2022-09-03T06:41:56;9.00;;;7.00;;
37169;SDS011;23062;13.952;100.608;2022-09-03T06:46:46;12.00;;;8.00;;
37169;SDS011;23062;13.952;100.608;2022-09-03T06:51:36;13.00;;;9.00;;
37169;SDS011;23062;13.952;100.608;2022-09-03T06:56:25;13.00;;;9.00;;
37169;SDS011;23062;13.952;100.608;2022-09-03T07:01:17;11.00;;;8.00;;
37169;SDS011;23062;13.952;100.608;2022-09-03T07:06:11;14.00;;;10.00;;
37169;SDS011;23062;13.952;100.608;2022-09-03T07:11:05;12.00;;;8.00;;
37169;SDS011;23062;13.952;100.608;2022-09-03T07:16:04;15.00;;;10.00;;
37169;SDS011;23062;13.952;100.608;2022-09-03T07:20:56;20.00;;;14.00;;
37169;SDS011;23062;13.952;100.608;2022-09-03T07:25:51;19.00;;;14.00;;
37169;SDS011;23062;13.952;100.608;2022-09-03T07:30:41;19.00;;;14.00;;
37169;SDS011;23062;13.952;100.608;2022-09-03T07:35:31;18.00;;;14.00;;
37169;SDS011;23062;13.952;100.608;2022-09-03T07:40:23;21.00;;;15.00;;
37169;SDS011;23062;13.952;100.608;2022-09-03T07:45:12;19.00;;;14.00;;
37169;SDS011;23062;13.952;100.608;2022-09-03T07:50:02;18.00;;;13.00;;
37169;SDS011;23062;13.952;100.608;2022-09-03T07:54:52;20.00;;;14.00;;
37169;SDS011;23062;13.952;100.608;2022-09-03T07:59:42;16.00;;;12.00;;
37169;SDS011;23062;13.952;100.608;2022-09-03T08:04:31;16.00;;;12.00;;
37169;SDS011;23062;13.952;100.608;2022-09-03T08:09:21;19.00;;;13.00;;
37169;SDS011;23062;13.952;100.608;2022-09-03T08:14:12;15.00;;;11.00;;
37169;SDS011;23062;13.952;100.608;2022-09-03T08:19:02;19.00;;;14.00;;
37169;SDS011;23062;13.952;100.608;2022-09-03T08:23:52;19.00;;;15.00;;
37169;SDS011;23062;13.952;100.608;2022-09-03T08:28:47;17.00;;;13.00;;
37169;SDS011;23062;13.952;100.608;2022-09-03T08:33:46;17.00;;;13.00;;
37169;SDS011;23062;13.952;100.608;2022-09-03T08:38:37;17.00;;;13.00;;
37169;SDS011;23062;13.952;100.608;2022-09-03T08:43:29;19.00;;;15.00;;
37169;SDS011;23062;13.952;100.608;2022-09-03T08:48:21;21.00;;;15.00;;
37169;SDS011;23062;13.952;100.608;2022-09-03T08:53:16;19.00;;;14.00;;
37169;SDS011;23062;13.952;100.608;2022-09-03T08:58:20;19.00;;;14.00;;
37169;SDS011;23062;13.952;100.608;2022-09-03T09:18:49;19.00;;;13.00;;
37169;SDS011;23062;13.952;100.608;2022-09-03T09:23:49;16.00;;;12.00;;
37169;SDS011;23062;13.952;100.608;2022-09-03T09:28:35;15.00;;;11.00;;
37169;SDS011;23062;13.952;100.608;2022-09-03T09:33:28;17.00;;;12.00;;
37169;SDS011;23062;13.952;100.608;2022-09-03T09:38:29;17.00;;;12.00;;
37169;SDS011;23062;13.952;100.608;2022-09-03T09:43:24;16.00;;;12.00;;
37169;SDS011;23062;13.952;100.608;2022-09-03T09:48:27;12.00;;;9.00;;
37169;SDS011;23062;13.952;100.608;2022-09-03T09:53:19;24.00;;;17.00;;
37169;SDS011;23062;13.952;100.608;2022-09-03T09:58:09;75.00;;;58.00;;
37169;SDS011;23062;13.952;100.608;2022-09-03T10:02:58;120.00;;;90.00;;
37169;SDS011;23062;13.952;100.608;2022-09-03T10:08:02;50.00;;;38.00;;
37169;SDS011;23062;13.952;100.608;2022-09-03T10:17:56;23.00;;;17.00;;
37169;SDS011;23062;13.952;100.608;2022-09-03T10:22:51;16.00;;;12.00;;
37169;SDS011;23062;13.952;100.608;2022-09-03T10:27:44;15.00;;;11.00;;
37169;SDS011;23062;13.952;100.608;2022-09-03T11:04:19;6.00;;;4.00;;
37169;SDS011;23062;13.952;100.608;2022-09-03T11:09:17;6.00;;;4.00;;
37169;SDS011;23062;13.952;100.608;2022-09-03T11:14:09;6.00;;;4.00;;
37169;SDS011;23062;13.952;100.608;2022-09-03T11:19:04;6.00;;;4.00;;
37169;SDS011;23062;13.952;100.608;2022-09-03T11:29:16;10.00;;;7.00;;
37169;SDS011;23062;13.952;100.608;2022-09-03T11:34:13;12.00;;;8.00;;
37169;SDS011;23062;13.952;100.608;2022-09-03T11:44:17;15.00;;;11.00;;
37169;SDS011;23062;13.952;100.608;2022-09-03T11:49:22;15.00;;;11.00;;
37169;SDS011;23062;13.952;100.608;2022-09-03T11:59:01;16.00;;;11.00;;
37169;SDS011;23062;13.952;100.608;2022-09-03T12:04:08;15.00;;;10.00;;
37169;SDS011;23062;13.952;100.608;2022-09-03T12:24:19;11.00;;;8.00;;
37169;SDS011;23062;13.952;100.608;2022-09-03T12:29:19;14.00;;;10.00;;
37169;SDS011;23062;13.952;100.608;2022-09-03T12:34:16;12.00;;;9.00;;
37169;SDS011;23062;13.952;100.608;2022-09-03T12:39:08;15.00;;;11.00;;
37169;SDS011;23062;13.952;100.608;2022-09-03T12:43:59;13.00;;;9.00;;
37169;SDS011;23062;13.952;100.608;2022-09-03T12:48:56;13.00;;;9.00;;
37169;SDS011;23062;13.952;100.608;2022-09-03T12:53:50;14.00;;;10.00;;
37169;SDS011;23062;13.952;100.608;2022-09-03T12:58:48;13.00;;;9.00;;
37169;SDS011;23062;13.952;100.608;2022-09-03T13:08:58;15.00;;;10.00;;
37169;SDS011;23062;13.952;100.608;2022-09-03T13:14:00;15.00;;;10.00;;
37169;SDS011;23062;13.952;100.608;2022-09-03T13:18:57;13.00;;;9.00;;
37169;SDS011;23062;13.952;100.608;2022-09-03T13:29:18;11.00;;;8.00;;
37169;SDS011;23062;13.952;100.608;2022-09-03T13:34:19;12.00;;;8.00;;
37169;SDS011;23062;13.952;100.608;2022-09-03T13:39:15;10.00;;;7.00;;
37169;SDS011;23062;13.952;100.608;2022-09-03T13:44:19;8.00;;;6.00;;
37169;SDS011;23062;13.952;100.608;2022-09-03T13:54:54;14.00;;;10.00;;
37169;SDS011;23062;13.952;100.608;2022-09-03T13:59:53;13.00;;;9.00;;
37169;SDS011;23062;13.952;100.608;2022-09-03T14:05:05;11.00;;;8.00;;
37169;SDS011;23062;13.952;100.608;2022-09-03T14:10:16;11.00;;;7.00;;
37169;SDS011;23062;13.952;100.608;2022-09-03T14:15:15;10.00;;;7.00;;
37169;SDS011;23062;13.952;100.608;2022-09-03T14:20:31;11.00;;;7.00;;
37169;SDS011;23062;13.952;100.608;2022-09-03T14:25:29;12.00;;;9.00;;
37169;SDS011;23062;13.952;100.608;2022-09-03T14:45:12;14.00;;;10.00;;
37169;SDS011;23062;13.952;100.608;2022-09-03T15:15:44;12.00;;;7.47;;
37169;SDS011;23062;13.952;100.608;2022-09-03T15:30:40;13.00;;;10.00;;
37169;SDS011;23062;13.952;100.608;2022-09-03T15:41:04;11.00;;;8.00;;
37169;SDS011;23062;13.952;100.608;2022-09-03T15:45:58;15.00;;;11.00;;
37169;SDS011;23062;13.952;100.608;2022-09-03T15:51:04;13.00;;;9.00;;
37169;SDS011;23062;13.952;100.608;2022-09-03T16:01:19;17.00;;;12.00;;
37169;SDS011;23062;13.952;100.608;2022-09-03T16:06:06;16.00;;;11.00;;
37169;SDS011;23062;13.952;100.608;2022-09-03T16:16:04;15.00;;;11.00;;
37169;SDS011;23062;13.952;100.608;2022-09-03T16:21:12;11.00;;;8.00;;
37169;SDS011;23062;13.952;100.608;2022-09-03T16:26:13;16.00;;;11.00;;
37169;SDS011;23062;13.952;100.608;2022-09-03T16:31:10;14.00;;;11.00;;
37169;SDS011;23062;13.952;100.608;2022-09-03T16:46:28;15.00;;;10.00;;
37169;SDS011;23062;13.952;100.608;2022-09-03T16:51:33;13.00;;;10.00;;
37169;SDS011;23062;13.952;100.608;2022-09-03T17:02:01;14.00;;;10.00;;
37169;SDS011;23062;13.952;100.608;2022-09-03T17:27:59;13.00;;;9.00;;
37169;SDS011;23062;13.952;100.608;2022-09-03T17:32:57;12.00;;;9.00;;
37169;SDS011;23062;13.952;100.608;2022-09-03T17:43:17;12.00;;;9.00;;
37169;SDS011;23062;13.952;100.608;2022-09-03T17:48:41;10.00;;;8.00;;
37169;SDS011;23062;13.952;100.608;2022-09-03T17:53:47;13.00;;;10.00;;
37169;SDS011;23062;13.952;100.608;2022-09-03T17:58:47;13.00;;;10.00;;
37169;SDS011;23062;13.952;100.608;2022-09-03T18:03:46;13.00;;;9.00;;
37169;SDS011;23062;13.952;100.608;2022-09-03T18:08:56;13.00;;;9.00;;
37169;SDS011;23062;13.952;100.608;2022-09-03T18:14:18;13.00;;;9.00;;
37169;SDS011;23062;13.952;100.608;2022-09-03T18:19:26;9.00;;;6.00;;
37169;SDS011;23062;13.952;100.608;2022-09-03T18:24:28;11.00;;;8.00;;
37169;SDS011;23062;13.952;100.608;2022-09-03T18:29:47;11.00;;;8.00;;
37169;SDS011;23062;13.952;100.608;2022-09-03T18:35:01;13.00;;;9.00;;
37169;SDS011;23062;13.952;100.608;2022-09-03T18:40:18;10.00;;;7.00;;
37169;SDS011;23062;13.952;100.608;2022-09-03T18:51:14;11.00;;;7.00;;
37169;SDS011;23062;13.952;100.608;2022-09-03T19:01:40;13.00;;;10.00;;
37169;SDS011;23062;13.952;100.608;2022-09-03T19:06:57;11.00;;;8.00;;
37169;SDS011;23062;13.952;100.608;2022-09-03T19:12:22;10.00;;;7.00;;
37169;SDS011;23062;13.952;100.608;2022-09-03T19:23:15;10.00;;;7.00;;
37169;SDS011;23062;13.952;100.608;2022-09-03T19:28:30;11.00;;;8.00;;
37169;SDS011;23062;13.952;100.608;2022-09-03T19:55:18;12.00;;;8.00;;
37169;SDS011;23062;13.952;100.608;2022-09-03T20:00:34;8.00;;;6.00;;
37169;SDS011;23062;13.952;100.608;2022-09-03T20:05:49;8.00;;;6.00;;
37169;SDS011;23062;13.952;100.608;2022-09-03T20:11:05;9.00;;;6.00;;
37169;SDS011;23062;13.952;100.608;2022-09-03T20:16:13;10.00;;;7.00;;
37169;SDS011;23062;13.952;100.608;2022-09-03T20:21:13;12.00;;;8.00;;
37169;SDS011;23062;13.952;100.608;2022-09-03T20:31:22;9.00;;;5.60;;
37169;SDS011;23062;13.952;100.608;2022-09-03T20:46:38;10.00;;;7.00;;
37169;SDS011;23062;13.952;100.608;2022-09-03T20:51:44;8.00;;;6.00;;
37169;SDS011;23062;13.952;100.608;2022-09-03T20:56:39;10.00;;;7.00;;
37169;SDS011;23062;13.952;100.608;2022-09-03T21:06:32;9.00;;;6.00;;
37169;SDS011;23062;13.952;100.608;2022-09-03T21:11:29;10.00;;;7.00;;
37169;SDS011;23062;13.952;100.608;2022-09-03T21:16:27;9.00;;;7.00;;
37169;SDS011;23062;13.952;100.608;2022-09-03T21:21:36;6.00;;;4.00;;
37169;SDS011;23062;13.952;100.608;2022-09-03T21:26:26;3.00;;;2.00;;
37169;SDS011;23062;13.952;100.608;2022-09-03T21:31:23;2.00;;;1.00;;
37169;SDS011;23062;13.952;100.608;2022-09-03T21:36:28;3.00;;;2.00;;
37169;SDS011;23062;13.952;100.608;2022-09-03T21:46:20;2.00;;;0.93;;
37169;SDS011;23062;13.952;100.608;2022-09-03T21:51:20;1.00;;;0.00;;
37169;SDS011;23062;13.952;100.608;2022-09-03T21:56:21;0.00;;;0.00;;
37169;SDS011;23062;13.952;100.608;2022-09-03T22:06:27;2.00;;;1.00;;
37169;SDS011;23062;13.952;100.608;2022-09-03T22:11:31;4.00;;;2.00;;
37169;SDS011;23062;13.952;100.608;2022-09-03T22:16:32;2.00;;;1.00;;
37169;SDS011;23062;13.952;100.608;2022-09-03T22:26:47;1.00;;;0.00;;
37169;SDS011;23062;13.952;100.608;2022-09-03T22:31:40;2.00;;;1.00;;
37169;SDS011;23062;13.952;100.608;2022-09-03T22:36:38;1.00;;;0.00;;
37169;SDS011;23062;13.952;100.608;2022-09-03T22:52:12;2.00;;;1.00;;
37169;SDS011;23062;13.952;100.608;2022-09-03T22:57:00;1.00;;;0.00;;
37169;SDS011;23062;13.952;100.608;2022-09-03T23:02:12;1.00;;;0.00;;
37169;SDS011;23062;13.952;100.608;2022-09-03T23:07:19;3.00;;;1.00;;
37169;SDS011;23062;13.952;100.608;2022-09-03T23:12:30;3.00;;;2.00;;
37169;SDS011;23062;13.952;100.608;2022-09-03T23:17:17;5.00;;;3.00;;
37169;SDS011;23062;13.952;100.608;2022-09-03T23:22:12;4.00;;;2.00;;
37169;SDS011;23062;13.952;100.608;2022-09-03T23:27:21;8.00;;;5.00;;
37169;SDS011;23062;13.952;100.608;2022-09-03T23:32:06;7.00;;;4.00;;
37169;SDS011;23062;13.952;100.608;2022-09-03T23:41:52;2.00;;;1.00;;
37169;SDS011;23062;13.952;100.608;2022-09-03T23:52:02;2.00;;;1.00;;
